首页
METAR-TAF:

METAR-TAF

机场 :

迪拜国际机场

杜拜, 阿拉伯联合酋长国

纬度: 25-15-10N, 经度: 055-21-52E, 海拔: 8米

当前天气观测

该预报发布于16分钟前的20:00 UTC
风速9节,风向西转西北,在西北转西北之间变化
温度 27°C
湿度 66%
气压 1017 hPa
能见度10公里或以上
少量云层高于3500英尺

METAR: OMDB 202000Z 29009KT 270V330 9999 FEW035 27/20 Q1017 NOSIG

时间: 00:16 (20:16 UTC)

预报

该预报发布于3小时和15分钟前的17:01 UTC
预报有效从20日的 18点(UTC)到 22日的 00点(UTC)
风速12节,风向西转西北
能见度10公里或以上
少量云层高于3500英尺
成为
从 20日的 18点(UTC)到 20日的 20点(UTC)
风速5节,风向西南
几率 30% :
短暂存在
从 20日的 20点(UTC)到 21日的 07点(UTC)
风速18节,风向多变,有时为30节阵风
能見度: 3000
散云层高于4000英尺, 塔状积云.
阵雨
成为
从 21日的 04点(UTC)到 21日的 06点(UTC)
风速15节,风向西
成为
从 21日的 16点(UTC)到 21日的 18点(UTC)
风速5节,风向南转西南

TAF: OMDB 201701Z 2018/2200 29012KT 9999 FEW035 BECMG 2018/2020 22005KT PROB30 TEMPO 2020/2107 VRB18G30KT 3000 SHRA SCT040TCU BECMG 2104/2106 28015KT BECMG 2116/2118 20005KT

超过4000个机场的气象观测和天气预报(METAR&TAF报告)。

可查询的气象台以黄色和红色小点在地图上表示。

将鼠标移到小点上方,可查看气象台名称。

然后点击查看天气观测和预报。

如需切换地图:点击带黑十字的绿色按钮放大地图;点击带横线的绿色按钮缩小地图;或者点击绿色箭头查看邻近地区的地图。


METAR-TAF: